sensor_id;sensor_type;location;lat;lon;timestamp;P1;durP1;ratioP1;P2;durP2;ratioP2
61009;SDS011;46897;55.340;86.082;2023-04-06T00:01:57;285.92;;;90.82;;
61009;SDS011;46897;55.340;86.082;2023-04-06T00:04:26;283.95;;;86.10;;
61009;SDS011;46897;55.340;86.082;2023-04-06T00:06:56;272.08;;;78.22;;
61009;SDS011;46897;55.340;86.082;2023-04-06T00:09:42;261.25;;;80.22;;
61009;SDS011;46897;55.340;86.082;2023-04-06T00:12:11;249.43;;;77.95;;
61009;SDS011;46897;55.340;86.082;2023-04-06T00:14:41;287.35;;;84.85;;
61009;SDS011;46897;55.340;86.082;2023-04-06T00:17:12;268.83;;;83.47;;
61009;SDS011;46897;55.340;86.082;2023-04-06T00:19:58;280.98;;;85.97;;
61009;SDS011;46897;55.340;86.082;2023-04-06T00:22:27;275.80;;;82.25;;
61009;SDS011;46897;55.340;86.082;2023-04-06T00:25:15;242.75;;;73.55;;
61009;SDS011;46897;55.340;86.082;2023-04-06T00:28:01;258.60;;;82.80;;
61009;SDS011;46897;55.340;86.082;2023-04-06T00:30:31;277.95;;;83.72;;
61009;SDS011;46897;55.340;86.082;2023-04-06T00:35:50;212.95;;;61.88;;
61009;SDS011;46897;55.340;86.082;2023-04-06T00:38:19;188.90;;;53.95;;
61009;SDS011;46897;55.340;86.082;2023-04-06T00:40:50;218.63;;;58.58;;
61009;SDS011;46897;55.340;86.082;2023-04-06T00:43:20;249.82;;;74.15;;
61009;SDS011;46897;55.340;86.082;2023-04-06T00:45:52;256.20;;;85.90;;
61009;SDS011;46897;55.340;86.082;2023-04-06T00:48:24;223.10;;;70.75;;
61009;SDS011;46897;55.340;86.082;2023-04-06T00:53:46;160.43;;;48.08;;
61009;SDS011;46897;55.340;86.082;2023-04-06T00:56:15;136.27;;;39.08;;
61009;SDS011;46897;55.340;86.082;2023-04-06T00:59:01;137.10;;;39.30;;
61009;SDS011;46897;55.340;86.082;2023-04-06T01:01:31;138.95;;;40.17;;
61009;SDS011;46897;55.340;86.082;2023-04-06T01:04:02;133.77;;;37.60;;
61009;SDS011;46897;55.340;86.082;2023-04-06T01:09:19;110.13;;;34.15;;
61009;SDS011;46897;55.340;86.082;2023-04-06T01:12:09;88.10;;;28.42;;
61009;SDS011;46897;55.340;86.082;2023-04-06T01:17:25;105.97;;;28.27;;
61009;SDS011;46897;55.340;86.082;2023-04-06T01:19:57;98.35;;;25.92;;
61009;SDS011;46897;55.340;86.082;2023-04-06T01:22:28;80.32;;;23.17;;
61009;SDS011;46897;55.340;86.082;2023-04-06T01:24:57;81.00;;;25.08;;
61009;SDS011;46897;55.340;86.082;2023-04-06T01:27:27;87.38;;;24.80;;
61009;SDS011;46897;55.340;86.082;2023-04-06T01:30:32;80.25;;;25.15;;
61009;SDS011;46897;55.340;86.082;2023-04-06T01:33:01;96.90;;;23.83;;
61009;SDS011;46897;55.340;86.082;2023-04-06T01:35:30;89.30;;;22.33;;
61009;SDS011;46897;55.340;86.082;2023-04-06T01:38:01;60.15;;;18.33;;
61009;SDS011;46897;55.340;86.082;2023-04-06T01:40:48;70.93;;;17.85;;
61009;SDS011;46897;55.340;86.082;2023-04-06T01:43:17;65.93;;;17.55;;
61009;SDS011;46897;55.340;86.082;2023-04-06T01:45:47;66.05;;;17.33;;
61009;SDS011;46897;55.340;86.082;2023-04-06T01:48:33;63.25;;;17.65;;
61009;SDS011;46897;55.340;86.082;2023-04-06T01:54:10;45.42;;;16.15;;
61009;SDS011;46897;55.340;86.082;2023-04-06T01:56:39;54.42;;;15.50;;
61009;SDS011;46897;55.340;86.082;2023-04-06T01:59:26;50.67;;;16.23;;
61009;SDS011;46897;55.340;86.082;2023-04-06T02:01:56;80.63;;;19.08;;
61009;SDS011;46897;55.340;86.082;2023-04-06T02:04:25;68.22;;;17.65;;
61009;SDS011;46897;55.340;86.082;2023-04-06T02:07:11;70.13;;;17.35;;
61009;SDS011;46897;55.340;86.082;2023-04-06T02:10:00;70.55;;;18.05;;
61009;SDS011;46897;55.340;86.082;2023-04-06T02:12:29;79.53;;;20.77;;
61009;SDS011;46897;55.340;86.082;2023-04-06T02:14:58;66.10;;;17.33;;
61009;SDS011;46897;55.340;86.082;2023-04-06T02:20:15;66.97;;;16.45;;
61009;SDS011;46897;55.340;86.082;2023-04-06T02:22:45;57.33;;;15.13;;
61009;SDS011;46897;55.340;86.082;2023-04-06T02:28:24;64.15;;;16.13;;
61009;SDS011;46897;55.340;86.082;2023-04-06T02:30:56;62.10;;;17.75;;
61009;SDS011;46897;55.340;86.082;2023-04-06T02:33:46;58.53;;;18.17;;
61009;SDS011;46897;55.340;86.082;2023-04-06T02:36:15;66.80;;;17.70;;
61009;SDS011;46897;55.340;86.082;2023-04-06T02:41:33;69.57;;;19.35;;
61009;SDS011;46897;55.340;86.082;2023-04-06T02:44:03;72.38;;;18.27;;
61009;SDS011;46897;55.340;86.082;2023-04-06T02:46:33;76.68;;;17.70;;
61009;SDS011;46897;55.340;86.082;2023-04-06T02:49:03;85.20;;;20.15;;
61009;SDS011;46897;55.340;86.082;2023-04-06T02:51:49;70.20;;;20.05;;
61009;SDS011;46897;55.340;86.082;2023-04-06T02:54:18;77.97;;;18.83;;
61009;SDS011;46897;55.340;86.082;2023-04-06T02:57:06;101.65;;;22.63;;
61009;SDS011;46897;55.340;86.082;2023-04-06T03:10:46;19.25;;;6.57;;
61009;SDS011;46897;55.340;86.082;2023-04-06T03:13:16;20.73;;;6.95;;
61009;SDS011;46897;55.340;86.082;2023-04-06T03:15:46;22.88;;;8.07;;
61009;SDS011;46897;55.340;86.082;2023-04-06T03:18:51;22.90;;;7.22;;
61009;SDS011;46897;55.340;86.082;2023-04-06T03:24:43;17.13;;;6.63;;
61009;SDS011;46897;55.340;86.082;2023-04-06T03:27:12;15.05;;;6.47;;
61009;SDS011;46897;55.340;86.082;2023-04-06T03:29:43;20.35;;;6.30;;
61009;SDS011;46897;55.340;86.082;2023-04-06T03:32:12;19.52;;;6.35;;
61009;SDS011;46897;55.340;86.082;2023-04-06T03:37:46;24.23;;;6.20;;
61009;SDS011;46897;55.340;86.082;2023-04-06T03:40:33;24.08;;;7.47;;
61009;SDS011;46897;55.340;86.082;2023-04-06T03:43:03;22.48;;;6.75;;
61009;SDS011;46897;55.340;86.082;2023-04-06T03:45:35;23.80;;;8.35;;
61009;SDS011;46897;55.340;86.082;2023-04-06T03:48:04;26.25;;;8.25;;
61009;SDS011;46897;55.340;86.082;2023-04-06T03:50:52;25.17;;;8.43;;
61009;SDS011;46897;55.340;86.082;2023-04-06T03:59:32;19.52;;;7.10;;
61009;SDS011;46897;55.340;86.082;2023-04-06T04:02:38;18.23;;;6.75;;
61009;SDS011;46897;55.340;86.082;2023-04-06T04:05:08;14.15;;;5.18;;
61009;SDS011;46897;55.340;86.082;2023-04-06T04:10:25;17.98;;;5.50;;
61009;SDS011;46897;55.340;86.082;2023-04-06T04:12:54;16.63;;;6.70;;
61009;SDS011;46897;55.340;86.082;2023-04-06T04:15:23;16.58;;;5.43;;
61009;SDS011;46897;55.340;86.082;2023-04-06T04:17:54;11.27;;;5.57;;
61009;SDS011;46897;55.340;86.082;2023-04-06T04:20:23;18.77;;;5.78;;
61009;SDS011;46897;55.340;86.082;2023-04-06T04:23:13;39.85;;;7.32;;
61009;SDS011;46897;55.340;86.082;2023-04-06T04:28:48;18.10;;;5.10;;
61009;SDS011;46897;55.340;86.082;2023-04-06T04:31:18;29.35;;;6.10;;
61009;SDS011;46897;55.340;86.082;2023-04-06T04:33:51;19.25;;;6.15;;
61009;SDS011;46897;55.340;86.082;2023-04-06T04:36:37;13.05;;;5.00;;
61009;SDS011;46897;55.340;86.082;2023-04-06T04:39:23;17.52;;;5.68;;
61009;SDS011;46897;55.340;86.082;2023-04-06T04:42:09;16.35;;;5.78;;
61009;SDS011;46897;55.340;86.082;2023-04-06T04:44:39;20.50;;;6.82;;
61009;SDS011;46897;55.340;86.082;2023-04-06T04:47:26;12.65;;;5.10;;
61009;SDS011;46897;55.340;86.082;2023-04-06T04:49:57;17.88;;;4.57;;
61009;SDS011;46897;55.340;86.082;2023-04-06T04:52:26;21.17;;;6.15;;
61009;SDS011;46897;55.340;86.082;2023-04-06T04:55:12;17.13;;;6.50;;
61009;SDS011;46897;55.340;86.082;2023-04-06T04:57:41;12.23;;;4.15;;
61009;SDS011;46897;55.340;86.082;2023-04-06T05:09:12;26.33;;;5.93;;
61009;SDS011;46897;55.340;86.082;2023-04-06T05:12:00;13.45;;;5.65;;
61009;SDS011;46897;55.340;86.082;2023-04-06T05:14:47;17.10;;;6.60;;
61009;SDS011;46897;55.340;86.082;2023-04-06T05:17:16;28.23;;;6.03;;
61009;SDS011;46897;55.340;86.082;2023-04-06T05:22:34;19.58;;;5.80;;
61009;SDS011;46897;55.340;86.082;2023-04-06T05:25:05;33.53;;;7.05;;
61009;SDS011;46897;55.340;86.082;2023-04-06T05:28:15;15.23;;;5.63;;
61009;SDS011;46897;55.340;86.082;2023-04-06T05:30:47;17.33;;;6.05;;
61009;SDS011;46897;55.340;86.082;2023-04-06T05:33:52;14.65;;;5.88;;
61009;SDS011;46897;55.340;86.082;2023-04-06T05:36:21;12.30;;;5.53;;
61009;SDS011;46897;55.340;86.082;2023-04-06T05:38:51;18.77;;;6.00;;
61009;SDS011;46897;55.340;86.082;2023-04-06T05:41:23;18.92;;;5.80;;
61009;SDS011;46897;55.340;86.082;2023-04-06T05:43:53;14.27;;;4.95;;
61009;SDS011;46897;55.340;86.082;2023-04-06T05:46:40;11.60;;;4.53;;
61009;SDS011;46897;55.340;86.082;2023-04-06T05:49:09;15.18;;;5.38;;
61009;SDS011;46897;55.340;86.082;2023-04-06T05:51:39;17.65;;;5.30;;
61009;SDS011;46897;55.340;86.082;2023-04-06T05:54:10;17.25;;;5.10;;
61009;SDS011;46897;55.340;86.082;2023-04-06T05:56:40;21.05;;;5.32;;
61009;SDS011;46897;55.340;86.082;2023-04-06T06:02:31;15.95;;;4.60;;
61009;SDS011;46897;55.340;86.082;2023-04-06T06:05:01;20.50;;;4.72;;
61009;SDS011;46897;55.340;86.082;2023-04-06T06:07:47;12.38;;;4.97;;
61009;SDS011;46897;55.340;86.082;2023-04-06T06:10:17;22.67;;;8.70;;
61009;SDS011;46897;55.340;86.082;2023-04-06T06:13:05;28.27;;;5.38;;
61009;SDS011;46897;55.340;86.082;2023-04-06T06:15:53;13.25;;;3.60;;
61009;SDS011;46897;55.340;86.082;2023-04-06T06:18:57;9.40;;;3.30;;
61009;SDS011;46897;55.340;86.082;2023-04-06T06:21:44;7.85;;;3.55;;
61009;SDS011;46897;55.340;86.082;2023-04-06T06:24:31;14.75;;;3.65;;
61009;SDS011;46897;55.340;86.082;2023-04-06T06:27:17;13.00;;;3.33;;
61009;SDS011;46897;55.340;86.082;2023-04-06T06:32:53;13.55;;;4.85;;
61009;SDS011;46897;55.340;86.082;2023-04-06T06:35:23;27.02;;;4.97;;
61009;SDS011;46897;55.340;86.082;2023-04-06T06:43:35;10.25;;;4.10;;
61009;SDS011;46897;55.340;86.082;2023-04-06T06:46:05;41.40;;;6.32;;
61009;SDS011;46897;55.340;86.082;2023-04-06T06:48:35;15.48;;;4.72;;
61009;SDS011;46897;55.340;86.082;2023-04-06T06:51:22;12.73;;;4.55;;
61009;SDS011;46897;55.340;86.082;2023-04-06T06:54:26;8.65;;;3.83;;
61009;SDS011;46897;55.340;86.082;2023-04-06T06:56:55;14.88;;;4.15;;
61009;SDS011;46897;55.340;86.082;2023-04-06T06:59:25;17.85;;;4.68;;
61009;SDS011;46897;55.340;86.082;2023-04-06T07:01:56;11.40;;;4.07;;
61009;SDS011;46897;55.340;86.082;2023-04-06T07:04:27;10.70;;;4.18;;
61009;SDS011;46897;55.340;86.082;2023-04-06T07:10:19;13.68;;;2.80;;
61009;SDS011;46897;55.340;86.082;2023-04-06T07:19:16;13.77;;;3.35;;
61009;SDS011;46897;55.340;86.082;2023-04-06T07:21:45;8.60;;;3.03;;
61009;SDS011;46897;55.340;86.082;2023-04-06T07:24:33;8.98;;;3.75;;
61009;SDS011;46897;55.340;86.082;2023-04-06T07:27:02;7.00;;;3.00;;
61009;SDS011;46897;55.340;86.082;2023-04-06T07:29:31;7.82;;;3.35;;
61009;SDS011;46897;55.340;86.082;2023-04-06T07:32:01;10.98;;;3.15;;
61009;SDS011;46897;55.340;86.082;2023-04-06T07:37:22;10.50;;;3.00;;
61009;SDS011;46897;55.340;86.082;2023-04-06T07:39:52;7.13;;;2.50;;
61009;SDS011;46897;55.340;86.082;2023-04-06T07:42:39;9.63;;;3.20;;
61009;SDS011;46897;55.340;86.082;2023-04-06T07:47:56;12.57;;;2.72;;
61009;SDS011;46897;55.340;86.082;2023-04-06T07:50:42;16.77;;;3.70;;
61009;SDS011;46897;55.340;86.082;2023-04-06T07:53:13;18.88;;;3.72;;
61009;SDS011;46897;55.340;86.082;2023-04-06T07:55:42;16.17;;;3.47;;
61009;SDS011;46897;55.340;86.082;2023-04-06T08:04:04;8.07;;;3.03;;
61009;SDS011;46897;55.340;86.082;2023-04-06T08:06:34;11.60;;;3.50;;
61009;SDS011;46897;55.340;86.082;2023-04-06T08:09:22;13.07;;;3.85;;
61009;SDS011;46897;55.340;86.082;2023-04-06T08:11:52;10.02;;;3.60;;
61009;SDS011;46897;55.340;86.082;2023-04-06T08:14:21;9.52;;;2.88;;
61009;SDS011;46897;55.340;86.082;2023-04-06T08:17:26;12.38;;;3.30;;
61009;SDS011;46897;55.340;86.082;2023-04-06T08:20:12;12.88;;;4.63;;
61009;SDS011;46897;55.340;86.082;2023-04-06T08:22:42;8.18;;;4.50;;
61009;SDS011;46897;55.340;86.082;2023-04-06T08:25:12;16.88;;;5.65;;
61009;SDS011;46897;55.340;86.082;2023-04-06T08:28:00;10.52;;;4.00;;
61009;SDS011;46897;55.340;86.082;2023-04-06T08:30:29;13.75;;;3.83;;
61009;SDS011;46897;55.340;86.082;2023-04-06T08:32:59;8.50;;;3.55;;
61009;SDS011;46897;55.340;86.082;2023-04-06T08:35:45;11.18;;;3.65;;
61009;SDS011;46897;55.340;86.082;2023-04-06T08:38:14;8.02;;;3.00;;
61009;SDS011;46897;55.340;86.082;2023-04-06T08:40:45;9.27;;;3.15;;
61009;SDS011;46897;55.340;86.082;2023-04-06T08:43:16;14.43;;;3.63;;
61009;SDS011;46897;55.340;86.082;2023-04-06T08:45:49;7.53;;;2.80;;
61009;SDS011;46897;55.340;86.082;2023-04-06T08:48:18;7.25;;;2.90;;
61009;SDS011;46897;55.340;86.082;2023-04-06T08:50:52;6.88;;;3.30;;
